Time;durP1;ratioP1;P1;durP2;ratioP2;P2;SDS_P1;SDS_P2;PMS_P1;PMS_P2;Temp;Humidity;BMP_temperature;BMP_pressure;BME280_temperature;BME280_humidity;BME280_pressure;Samples;Min_cycle;Max_cycle;Signal;HPM_P1;HPM_P2
2023/07/06 00:01:05;;;;;;;7.10;3.57;;;21.30;82.70;;;;;;5015360;28;20956;-69
2023/07/06 00:03:33;;;;;;;8.30;3.53;;;21.40;82.90;;;;;;5014501;28;20681;-69
2023/07/06 00:06:00;;;;;;;3.67;3.23;;;21.30;82.70;;;;;;5015669;28;20474;-69
2023/07/06 00:08:27;;;;;;;5.00;3.50;;;21.30;82.70;;;;;;5015616;28;20462;-70
2023/07/06 00:10:53;;;;;;;4.10;3.67;;;21.30;82.70;;;;;;5018728;28;21202;-70
2023/07/06 00:13:23;;;;;;;4.93;3.43;;;21.30;83.40;;;;;;5018242;28;20451;-69
2023/07/06 00:15:49;;;;;;;4.93;3.67;;;21.20;83.80;;;;;;5014382;28;20439;-69
2023/07/06 00:18:17;;;;;;;5.43;4.00;;;21.20;84.10;;;;;;5012895;28;20467;-69
2023/07/06 00:20:42;;;;;;;5.87;3.70;;;21.20;84.80;;;;;;5014380;28;20459;-70
2023/07/06 00:23:10;;;;;;;5.07;3.87;;;21.10;84.80;;;;;;5014627;28;20842;-70
2023/07/06 00:25:36;;;;;;;4.03;3.33;;;21.10;85.10;;;;;;5018561;28;20212;-69
2023/07/06 00:28:03;;;;;;;5.20;3.50;;;21.10;85.00;;;;;;5015497;28;21012;-69
2023/07/06 00:30:53;;;;;;;5.23;3.43;;;21.10;85.90;;;;;;5026749;28;20892;-69
2023/07/06 00:33:19;;;;;;;9.63;4.10;;;21.00;85.20;;;;;;5019390;28;20469;-69
2023/07/06 00:35:46;;;;;;;17.00;4.13;;;21.10;85.20;;;;;;5015972;28;20468;-69
2023/07/06 00:38:16;;;;;;;5.10;3.77;;;21.00;85.10;;;;;;5016073;28;21203;-69
2023/07/06 00:40:44;;;;;;;5.30;4.17;;;21.00;85.50;;;;;;5014021;28;20446;-69
2023/07/06 00:43:11;;;;;;;3.80;3.40;;;21.00;86.10;;;;;;5018829;28;20446;-69
2023/07/06 00:45:38;;;;;;;14.13;3.90;;;21.00;86.90;;;;;;5018094;28;20625;-69
2023/07/06 00:48:10;;;;;;;5.80;3.80;;;21.10;88.20;;;;;;5017960;28;20459;-69
2023/07/06 00:50:36;;;;;;;4.00;3.60;;;21.00;88.70;;;;;;5014194;28;20508;-69
2023/07/06 00:53:06;;;;;;;5.70;4.90;;;21.00;89.80;;;;;;5020102;28;20450;-69
2023/07/06 00:55:45;;;;;;;4.93;3.73;;;21.00;89.90;;;;;;5021114;28;20912;-69
2023/07/06 00:58:36;;;;;;;3.80;3.33;;;20.80;89.90;;;;;;5019616;28;20824;-69
2023/07/06 01:01:05;;;;;;;4.90;3.57;;;20.70;90.50;;;;;;5015785;28;20702;-69
2023/07/06 01:03:34;;;;;;;4.93;3.63;;;20.60;90.70;;;;;;5019236;28;20539;-69
2023/07/06 01:06:03;;;;;;;4.97;3.30;;;20.70;90.80;;;;;;5019040;28;20482;-68
2023/07/06 01:08:30;;;;;;;5.67;3.17;;;20.60;91.10;;;;;;5023883;28;20462;-69
2023/07/06 01:10:58;;;;;;;4.23;3.40;;;20.40;91.50;;;;;;5013800;28;20864;-69
2023/07/06 01:13:24;;;;;;;7.13;4.30;;;20.40;91.30;;;;;;5021235;28;20489;-68
2023/07/06 01:15:57;;;;;;;5.47;3.60;;;20.40;91.70;;;;;;5023229;28;20435;-69
2023/07/06 01:18:39;;;;;;;7.77;3.50;;;20.40;91.80;;;;;;5022095;28;20208;-69
2023/07/06 01:21:16;;;;;;;4.63;3.70;;;20.40;91.60;;;;;;5021973;28;20483;-69
2023/07/06 01:24:10;;;;;;;5.27;3.80;;;20.40;92.20;;;;;;5018969;28;20497;-69
2023/07/06 01:26:58;;;;;;;4.80;3.93;;;20.30;92.40;;;;;;5019562;28;20431;-69
2023/07/06 01:29:49;;;;;;;5.73;3.40;;;20.30;92.20;;;;;;4981172;28;20459;-69
2023/07/06 01:32:21;;;;;;;4.87;3.80;;;20.40;92.40;;;;;;5021220;28;20462;-69
2023/07/06 01:35:01;;;;;;;6.30;4.00;;;20.20;92.50;;;;;;5026896;28;20577;-69
2023/07/06 01:37:32;;;;;;;4.13;3.40;;;20.30;93.10;;;;;;5020465;28;20812;-70
2023/07/06 01:39:59;;;;;;;10.50;3.93;;;20.20;93.50;;;;;;5019388;28;20459;-70
2023/07/06 01:42:26;;;;;;;4.43;4.00;;;20.10;93.90;;;;;;5018260;28;20439;-70
2023/07/06 01:44:53;;;;;;;5.00;4.00;;;20.10;94.00;;;;;;5014117;28;20500;-69
2023/07/06 01:47:19;;;;;;;5.00;3.63;;;20.20;93.90;;;;;;5020885;28;20442;-69
2023/07/06 01:49:48;;;;;;;4.33;3.90;;;20.20;94.80;;;;;;5018459;28;20538;-69
2023/07/06 01:52:43;;;;;;;4.83;3.33;;;20.30;94.40;;;;;;5020008;28;20435;-69
2023/07/06 01:55:11;;;;;;;4.00;3.50;;;20.30;94.30;;;;;;5020477;28;20435;-69
2023/07/06 01:57:54;;;;;;;4.03;3.43;;;20.20;94.00;;;;;;5016099;28;20921;-69
2023/07/06 02:00:23;;;;;;;7.83;4.20;;;20.20;94.00;;;;;;5017518;28;20435;-69
2023/07/06 02:02:51;;;;;;;6.83;3.70;;;20.20;94.10;;;;;;5020507;28;20435;-69
2023/07/06 02:05:19;;;;;;;4.37;3.97;;;20.10;94.20;;;;;;5019264;28;20562;-69
2023/07/06 02:07:45;;;;;;;6.27;3.97;;;20.00;94.40;;;;;;5013799;28;20536;-69
2023/07/06 02:10:14;;;;;;;4.57;3.67;;;20.00;94.60;;;;;;5017296;28;20510;-69
2023/07/06 02:12:42;;;;;;;3.90;3.60;;;20.00;94.60;;;;;;5017245;28;20486;-70
2023/07/06 02:15:08;;;;;;;6.97;4.30;;;19.90;94.80;;;;;;5020481;28;20459;-69
2023/07/06 02:17:36;;;;;;;7.83;3.80;;;19.90;95.00;;;;;;5022218;28;20435;-69
2023/07/06 02:20:01;;;;;;;3.90;3.37;;;19.90;95.00;;;;;;5017004;28;20452;-69
2023/07/06 02:22:28;;;;;;;4.87;3.57;;;19.90;95.20;;;;;;5020370;28;20508;-70
2023/07/06 02:24:53;;;;;;;5.83;3.83;;;19.90;95.30;;;;;;5019339;28;20212;-70
2023/07/06 02:27:19;;;;;;;5.97;4.00;;;20.00;95.30;;;;;;5015969;28;20791;-69
2023/07/06 02:29:45;;;;;;;4.30;3.83;;;20.00;95.10;;;;;;5018222;28;20599;-69
2023/07/06 02:32:11;;;;;;;4.43;3.50;;;19.90;95.20;;;;;;5018614;28;20235;-69
2023/07/06 02:34:37;;;;;;;4.90;3.33;;;19.80;95.50;;;;;;5020536;28;20435;-69
2023/07/06 02:37:03;;;;;;;4.80;3.30;;;19.90;95.30;;;;;;5023052;28;20437;-69
2023/07/06 02:39:30;;;;;;;4.50;3.63;;;19.90;95.40;;;;;;5017823;28;20208;-69
2023/07/06 02:41:58;;;;;;;5.87;4.23;;;19.80;95.50;;;;;;5022285;28;20441;-69
2023/07/06 02:44:24;;;;;;;6.77;3.73;;;19.80;95.60;;;;;;5019068;28;20444;-69
2023/07/06 02:46:51;;;;;;;8.63;4.00;;;19.80;95.60;;;;;;5016259;28;21536;-69
2023/07/06 02:49:17;;;;;;;4.90;3.50;;;19.80;95.50;;;;;;5020757;28;20831;-69
2023/07/06 02:51:43;;;;;;;4.50;3.80;;;19.80;95.50;;;;;;5021051;28;20458;-69
2023/07/06 02:54:12;;;;;;;4.17;3.77;;;19.80;95.70;;;;;;5021272;28;20454;-69
2023/07/06 02:56:38;;;;;;;4.97;3.63;;;19.80;96.10;;;;;;5020558;28;20218;-69
2023/07/06 02:59:04;;;;;;;3.73;3.40;;;19.80;96.10;;;;;;5017783;28;20466;-69
2023/07/06 03:01:29;;;;;;;3.60;3.17;;;19.80;96.20;;;;;;5018645;28;20192;-69
2023/07/06 03:03:55;;;;;;;5.07;3.83;;;19.80;96.20;;;;;;5022460;28;20189;-69
2023/07/06 03:06:20;;;;;;;5.27;3.90;;;19.80;96.20;;;;;;5019922;28;20211;-69
2023/07/06 03:08:47;;;;;;;4.20;3.10;;;19.80;96.20;;;;;;5021311;28;20208;-69
2023/07/06 03:11:14;;;;;;;5.03;3.77;;;19.80;96.50;;;;;;5021642;28;20185;-69
2023/07/06 03:13:40;;;;;;;4.63;3.60;;;19.80;96.70;;;;;;5016819;28;20439;-69
2023/07/06 03:16:07;;;;;;;6.60;3.87;;;19.80;96.80;;;;;;5017816;28;20542;-69
2023/07/06 03:18:33;;;;;;;5.47;3.83;;;19.70;97.10;;;;;;5027954;28;20580;-69
2023/07/06 03:21:00;;;;;;;8.07;4.00;;;19.70;97.10;;;;;;5021536;28;20566;-69
2023/07/06 03:23:27;;;;;;;6.70;3.93;;;19.70;97.50;;;;;;5022402;28;20663;-68
2023/07/06 03:25:53;;;;;;;3.90;3.50;;;19.70;97.30;;;;;;5017321;28;20475;-69
2023/07/06 03:28:20;;;;;;;4.80;3.47;;;19.70;97.40;;;;;;5017351;28;20521;-68
2023/07/06 03:30:52;;;;;;;6.17;4.00;;;19.70;97.60;;;;;;5029888;28;20474;-68
2023/07/06 03:33:19;;;;;;;4.47;3.87;;;19.70;97.80;;;;;;5016468;28;20453;-68
2023/07/06 03:35:45;;;;;;;6.30;4.10;;;19.60;97.90;;;;;;5026671;28;20438;-68
2023/07/06 03:38:12;;;;;;;6.40;4.10;;;19.60;98.30;;;;;;5022056;28;20570;-68
2023/07/06 03:40:38;;;;;;;6.27;4.17;;;19.60;98.40;;;;;;5018862;28;20188;-68
2023/07/06 03:43:04;;;;;;;4.77;3.60;;;19.60;98.40;;;;;;5019541;28;20912;-68
2023/07/06 03:45:30;;;;;;;5.63;3.67;;;19.60;98.60;;;;;;5016498;28;20405;-68
2023/07/06 03:47:56;;;;;;;8.00;4.20;;;19.60;98.70;;;;;;5024662;28;20463;-69
2023/07/06 03:50:21;;;;;;;4.90;3.47;;;19.60;98.80;;;;;;5018924;28;20509;-68
2023/07/06 03:52:47;;;;;;;5.47;3.90;;;19.60;98.90;;;;;;5023658;28;20188;-68
2023/07/06 03:55:24;;;;;;;5.30;4.10;;;19.60;99.00;;;;;;5013585;28;20204;-68
2023/07/06 03:57:50;;;;;;;5.77;3.60;;;19.60;98.90;;;;;;5014800;28;20443;-68
2023/07/06 04:00:22;;;;;;;5.43;3.90;;;19.60;99.00;;;;;;5018807;28;20500;-68
2023/07/06 04:02:53;;;;;;;5.77;4.50;;;19.50;99.10;;;;;;5020585;28;20443;-68
2023/07/06 04:05:22;;;;;;;5.20;3.80;;;19.50;99.60;;;;;;5026211;28;20479;-68
2023/07/06 04:07:52;;;;;;;3.83;3.43;;;19.40;99.90;;;;;;5019066;28;20979;-68
2023/07/06 04:10:22;;;;;;;6.67;3.50;;;19.40;99.90;;;;;;5024494;28;20531;-68
2023/07/06 04:12:49;;;;;;;4.93;3.73;;;19.40;99.90;;;;;;5023463;28;20454;-68
2023/07/06 04:15:19;;;;;;;4.93;3.70;;;19.50;99.90;;;;;;5024911;28;20451;-68
2023/07/06 04:17:47;;;;;;;6.83;4.27;;;19.50;99.90;;;;;;5024545;28;20876;-68
2023/07/06 04:20:21;;;;;;;6.13;3.93;;;19.50;99.90;;;;;;5017689;28;20432;-68
2023/07/06 04:22:48;;;;;;;7.80;3.93;;;19.50;99.90;;;;;;5028717;28;20462;-68
2023/07/06 04:25:18;;;;;;;5.13;3.90;;;19.40;99.90;;;;;;5023196;28;21017;-68
2023/07/06 04:27:44;;;;;;;8.60;3.73;;;19.50;99.90;;;;;;5023800;28;20443;-68
2023/07/06 04:30:14;;;;;;;7.20;4.97;;;19.50;99.90;;;;;;5041036;28;20411;-68
2023/07/06 04:32:42;;;;;;;6.47;3.87;;;19.50;99.90;;;;;;5024927;28;20185;-68
2023/07/06 04:35:11;;;;;;;5.33;3.93;;;19.40;99.90;;;;;;5025696;28;20446;-69
2023/07/06 04:37:37;;;;;;;5.03;4.10;;;19.50;99.90;;;;;;5023111;28;20421;-68
2023/07/06 04:40:11;;;;;;;6.07;3.67;;;19.40;99.90;;;;;;5025767;28;20521;-68
2023/07/06 04:42:37;;;;;;;5.10;4.20;;;19.40;99.90;;;;;;5024672;28;20299;-68
2023/07/06 04:45:04;;;;;;;5.97;4.37;;;19.30;99.90;;;;;;5023666;28;20485;-68
2023/07/06 04:47:29;;;;;;;6.37;4.10;;;19.30;99.90;;;;;;5026119;28;20836;-68
2023/07/06 04:49:55;;;;;;;5.80;4.27;;;19.20;99.90;;;;;;5019815;28;20732;-69
2023/07/06 04:52:20;;;;;;;6.03;4.47;;;19.30;99.90;;;;;;5025452;28;20246;-68
2023/07/06 04:54:50;;;;;;;8.40;3.83;;;19.20;99.90;;;;;;5027397;28;20189;-68
2023/07/06 04:57:16;;;;;;;6.97;4.03;;;19.20;99.90;;;;;;5027264;28;20681;-68
2023/07/06 04:59:42;;;;;;;5.87;3.97;;;19.10;99.90;;;;;;5020839;28;20546;-68
2023/07/06 05:02:10;;;;;;;8.73;4.10;;;19.20;99.90;;;;;;5028055;28;20446;-68
2023/07/06 05:04:40;;;;;;;5.10;4.10;;;19.20;99.90;;;;;;5030650;28;20427;-68
2023/07/06 05:07:06;;;;;;;5.27;3.60;;;19.20;99.90;;;;;;5025283;28;20858;-68
2023/07/06 05:09:32;;;;;;;4.73;4.23;;;19.20;99.90;;;;;;5025324;28;20466;-68
2023/07/06 05:11:58;;;;;;;5.70;4.30;;;19.20;99.90;;;;;;5022704;28;20466;-68
2023/07/06 05:14:24;;;;;;;4.07;3.67;;;19.30;99.90;;;;;;5021189;28;21494;-68
2023/07/06 05:16:49;;;;;;;4.70;4.27;;;19.30;99.90;;;;;;5022005;28;20185;-68
2023/07/06 05:19:15;;;;;;;5.13;4.30;;;19.30;99.90;;;;;;5025500;28;20204;-68
2023/07/06 05:21:41;;;;;;;4.90;3.93;;;19.30;99.90;;;;;;5018539;28;20206;-68
2023/07/06 05:24:08;;;;;;;6.77;4.07;;;19.30;99.90;;;;;;5024130;28;20947;-68
2023/07/06 05:26:33;;;;;;;4.53;3.60;;;19.30;99.90;;;;;;5026280;28;20471;-68
2023/07/06 05:28:59;;;;;;;4.27;3.80;;;19.20;99.90;;;;;;5021032;28;20462;-68
2023/07/06 05:31:26;;;;;;;4.37;3.60;;;19.30;99.90;;;;;;5022194;28;20177;-68
2023/07/06 05:33:52;;;;;;;5.23;4.10;;;19.30;99.90;;;;;;5023882;28;20271;-68
2023/07/06 05:36:17;;;;;;;6.40;3.67;;;19.20;99.90;;;;;;5022727;28;20580;-68
2023/07/06 05:38:43;;;;;;;6.20;3.63;;;19.20;99.90;;;;;;5018358;28;20219;-68
2023/07/06 05:41:09;;;;;;;5.60;3.93;;;19.30;99.90;;;;;;5021321;28;20184;-68
2023/07/06 05:43:34;;;;;;;8.60;5.00;;;19.30;99.90;;;;;;5023090;28;20200;-68
2023/07/06 05:46:00;;;;;;;5.27;4.23;;;19.30;99.90;;;;;;5023910;28;20295;-68
2023/07/06 05:48:25;;;;;;;5.37;3.87;;;19.30;99.90;;;;;;5022159;28;20291;-68
2023/07/06 05:50:51;;;;;;;4.80;4.00;;;19.40;99.90;;;;;;5022256;28;20592;-68
2023/07/06 05:53:16;;;;;;;9.50;4.03;;;19.50;99.90;;;;;;5026679;28;20192;-68
2023/07/06 05:55:43;;;;;;;5.13;4.13;;;19.40;99.90;;;;;;5023212;28;20184;-68
2023/07/06 05:58:11;;;;;;;5.30;4.10;;;19.50;99.90;;;;;;5017573;28;20211;-69
2023/07/06 06:00:39;;;;;;;7.90;4.40;;;19.50;99.90;;;;;;5021743;28;20432;-68
2023/07/06 06:03:05;;;;;;;7.17;5.03;;;19.60;99.90;;;;;;5024044;28;21132;-68
2023/07/06 06:05:31;;;;;;;5.13;4.30;;;19.60;99.90;;;;;;5020331;28;20811;-68
2023/07/06 06:07:58;;;;;;;10.47;7.33;;;19.60;99.90;;;;;;5021286;28;20439;-68
2023/07/06 06:10:23;;;;;;;5.90;3.93;;;19.70;99.90;;;;;;5020804;28;20181;-68
2023/07/06 06:12:49;;;;;;;5.73;3.90;;;19.70;99.90;;;;;;5018491;28;20447;-68
2023/07/06 06:15:15;;;;;;;6.70;4.37;;;19.80;99.90;;;;;;5019674;28;20231;-68
2023/07/06 06:17:41;;;;;;;9.00;5.00;;;19.80;99.90;;;;;;5020382;28;20275;-68
2023/07/06 06:20:08;;;;;;;4.87;3.40;;;19.90;99.90;;;;;;5023845;28;20270;-68
2023/07/06 06:22:34;;;;;;;6.53;3.87;;;19.80;99.90;;;;;;5023820;28;20528;-68
2023/07/06 06:25:01;;;;;;;5.43;3.70;;;20.00;99.90;;;;;;5017083;28;20474;-67
2023/07/06 06:27:26;;;;;;;4.80;3.30;;;20.00;99.90;;;;;;5022778;28;20451;-68
2023/07/06 06:29:53;;;;;;;4.30;3.30;;;20.10;99.90;;;;;;5018381;28;20459;-67
2023/07/06 06:32:19;;;;;;;4.93;4.00;;;20.20;99.90;;;;;;5024947;28;20215;-68
2023/07/06 06:34:45;;;;;;;4.33;3.43;;;20.10;99.90;;;;;;5018569;28;20515;-67
2023/07/06 06:37:11;;;;;;;4.90;3.63;;;20.10;99.90;;;;;;5020152;28;20430;-67
2023/07/06 06:39:38;;;;;;;5.40;3.30;;;20.10;99.90;;;;;;5018704;28;20331;-67
2023/07/06 06:42:04;;;;;;;4.57;3.57;;;20.10;99.90;;;;;;5015305;28;20192;-67
2023/07/06 06:44:30;;;;;;;4.73;3.70;;;20.10;99.90;;;;;;5020321;28;21062;-67
2023/07/06 06:46:58;;;;;;;5.70;4.10;;;20.20;99.90;;;;;;5024488;28;20667;-67
2023/07/06 06:49:25;;;;;;;4.63;3.40;;;20.40;99.90;;;;;;5022166;28;20760;-67
2023/07/06 06:51:50;;;;;;;4.73;3.47;;;20.40;99.00;;;;;;5021524;28;20446;-67
2023/07/06 06:54:16;;;;;;;4.10;3.63;;;20.30;99.40;;;;;;5023499;28;20427;-67
2023/07/06 06:56:41;;;;;;;4.80;3.70;;;20.20;99.60;;;;;;5019490;28;20275;-67
2023/07/06 06:59:09;;;;;;;3.77;3.37;;;20.40;98.90;;;;;;5023004;28;20207;-67
2023/07/06 07:01:35;;;;;;;4.27;3.10;;;20.30;98.80;;;;;;5018580;28;20497;-67
2023/07/06 07:04:00;;;;;;;4.80;3.13;;;20.40;98.80;;;;;;5020112;28;20439;-67
2023/07/06 07:06:28;;;;;;;7.07;3.70;;;20.40;98.90;;;;;;5021201;28;20230;-67
2023/07/06 07:08:54;;;;;;;5.40;3.60;;;20.40;98.80;;;;;;5021353;28;20207;-67
2023/07/06 07:11:21;;;;;;;6.53;4.20;;;20.40;98.60;;;;;;5018293;28;20442;-67
2023/07/06 07:13:51;;;;;;;4.53;3.33;;;20.50;98.20;;;;;;5022732;28;20431;-66
2023/07/06 07:16:17;;;;;;;4.50;3.53;;;20.50;97.90;;;;;;5019463;28;20435;-66
2023/07/06 07:18:43;;;;;;;4.00;3.50;;;20.60;97.90;;;;;;5019166;28;20764;-66
2023/07/06 07:21:10;;;;;;;5.30;4.23;;;20.60;97.50;;;;;;5020223;28;20457;-67
2023/07/06 07:23:42;;;;;;;3.70;3.30;;;20.60;97.50;;;;;;5020556;28;20431;-68
2023/07/06 07:26:19;;;;;;;6.73;3.97;;;20.70;97.50;;;;;;5023166;28;20540;-67
2023/07/06 07:28:48;;;;;;;4.33;2.90;;;20.80;97.60;;;;;;5023220;28;20486;-67
2023/07/06 07:31:17;;;;;;;8.53;5.90;;;20.80;97.70;;;;;;5021653;28;20443;-66
2023/07/06 07:33:43;;;;;;;11.63;7.83;;;20.90;97.50;;;;;;5024574;28;20477;-67
2023/07/06 07:36:11;;;;;;;5.47;3.80;;;21.00;97.50;;;;;;5022798;28;20516;-66
2023/07/06 07:38:38;;;;;;;5.37;3.73;;;21.00;97.70;;;;;;5024443;28;20505;-67
2023/07/06 07:41:06;;;;;;;6.87;4.13;;;21.10;97.50;;;;;;5021293;28;20434;-67
2023/07/06 07:43:41;;;;;;;5.90;4.67;;;21.20;97.10;;;;;;5023536;28;20809;-67
2023/07/06 07:46:09;;;;;;;6.47;5.00;;;21.20;97.20;;;;;;5031831;28;20465;-67
2023/07/06 07:48:39;;;;;;;4.77;3.80;;;21.20;97.20;;;;;;5019157;28;20554;-67
2023/07/06 07:51:09;;;;;;;8.47;4.07;;;21.30;97.40;;;;;;5022253;28;20537;-67
2023/07/06 07:53:37;;;;;;;6.27;4.07;;;21.40;97.40;;;;;;5022475;28;20421;-67
2023/07/06 07:56:04;;;;;;;6.13;4.50;;;21.40;97.70;;;;;;5027959;28;20433;-67
2023/07/06 07:58:34;;;;;;;4.07;3.67;;;21.50;97.50;;;;;;5023619;28;20478;-68
2023/07/06 08:01:01;;;;;;;10.27;4.40;;;21.60;97.30;;;;;;5027779;28;20422;-67
2023/07/06 08:03:27;;;;;;;6.03;4.23;;;21.80;97.00;;;;;;5025981;28;20785;-67
2023/07/06 08:05:54;;;;;;;6.23;3.73;;;21.80;97.00;;;;;;5025098;28;21045;-68
2023/07/06 08:08:25;;;;;;;4.90;3.70;;;21.70;97.00;;;;;;5027624;28;20454;-67
2023/07/06 08:10:53;;;;;;;6.13;4.20;;;21.70;97.10;;;;;;5025000;28;20423;-67
2023/07/06 08:13:20;;;;;;;8.47;4.43;;;21.80;97.00;;;;;;5020063;28;20964;-66
2023/07/06 08:15:46;;;;;;;7.40;4.40;;;21.80;96.70;;;;;;5029820;28;20509;-68
2023/07/06 08:18:13;;;;;;;6.57;4.60;;;21.80;96.20;;;;;;5024587;28;20979;-67
2023/07/06 08:20:38;;;;;;;5.13;3.60;;;21.70;96.40;;;;;;5027276;28;20419;-67
2023/07/06 08:23:12;;;;;;;8.77;4.60;;;21.80;96.60;;;;;;5032156;28;20433;-67
2023/07/06 08:25:40;;;;;;;8.00;4.30;;;21.80;96.60;;;;;;5020585;28;20208;-67
2023/07/06 08:28:07;;;;;;;8.13;4.20;;;21.80;96.80;;;;;;5027371;28;20472;-67
2023/07/06 08:30:35;;;;;;;5.63;4.70;;;22.00;96.80;;;;;;5024314;28;20435;-67
2023/07/06 08:33:00;;;;;;;4.90;3.87;;;22.00;96.70;;;;;;5030587;28;20988;-67
2023/07/06 08:35:30;;;;;;;8.50;4.37;;;22.10;96.70;;;;;;5026172;28;20727;-68
2023/07/06 08:37:56;;;;;;;8.40;3.83;;;22.10;96.90;;;;;;5027384;28;20187;-68
2023/07/06 08:40:26;;;;;;;5.90;3.70;;;22.10;96.90;;;;;;5024047;28;20889;-68
2023/07/06 08:42:55;;;;;;;11.70;4.17;;;22.20;95.70;;;;;;5022277;28;20756;-68
2023/07/06 08:45:23;;;;;;;4.30;3.90;;;22.20;95.10;;;;;;5037943;28;20475;-68
2023/07/06 08:47:51;;;;;;;6.53;3.80;;;22.20;95.30;;;;;;5025333;28;20430;-68
2023/07/06 08:50:30;;;;;;;6.77;4.03;;;22.20;95.20;;;;;;5026428;28;20448;-68
2023/07/06 08:52:56;;;;;;;9.83;4.50;;;22.20;95.40;;;;;;5025887;28;20439;-67
2023/07/06 08:55:24;;;;;;;5.93;4.10;;;22.20;95.20;;;;;;5025684;28;20419;-68
2023/07/06 08:57:50;;;;;;;4.47;3.77;;;22.40;94.60;;;;;;5024471;28;20447;-68
2023/07/06 09:00:25;;;;;;;7.03;3.83;;;22.50;94.00;;;;;;5025237;28;20427;-68
2023/07/06 09:02:54;;;;;;;7.80;3.63;;;22.50;94.50;;;;;;5027544;28;20514;-68
2023/07/06 09:05:20;;;;;;;5.10;4.20;;;22.50;94.50;;;;;;5025791;28;20455;-67
2023/07/06 09:07:47;;;;;;;5.50;3.70;;;22.40;94.30;;;;;;5023840;28;20440;-67
2023/07/06 09:10:17;;;;;;;7.10;3.50;;;22.60;93.90;;;;;;5025365;28;20181;-68
2023/07/06 09:12:43;;;;;;;5.13;3.53;;;22.60;93.40;;;;;;5026166;28;20483;-68
2023/07/06 09:15:09;;;;;;;4.57;4.00;;;22.60;93.20;;;;;;5028467;28;20469;-68
2023/07/06 09:17:45;;;;;;;4.50;3.40;;;22.70;93.30;;;;;;5019365;28;20767;-68
2023/07/06 09:20:13;;;;;;;4.23;3.27;;;22.80;92.20;;;;;;5025872;28;20948;-68
2023/07/06 09:22:42;;;;;;;4.47;3.33;;;22.80;91.20;;;;;;5025088;28;20919;-67
2023/07/06 09:25:21;;;;;;;9.40;3.67;;;22.80;90.40;;;;;;5020591;28;20526;-67
2023/07/06 09:27:48;;;;;;;8.77;3.93;;;22.80;88.90;;;;;;5021291;28;20450;-67
2023/07/06 09:30:33;;;;;;;5.70;3.50;;;22.80;88.50;;;;;;5026344;28;20450;-67
2023/07/06 09:33:19;;;;;;;6.03;3.03;;;22.80;88.80;;;;;;5026637;28;20620;-67
2023/07/06 09:35:45;;;;;;;4.80;3.37;;;22.80;86.50;;;;;;5025069;28;20416;-67
2023/07/06 09:38:14;;;;;;;6.23;3.57;;;22.80;87.00;;;;;;5024356;28;20451;-67
2023/07/06 09:40:43;;;;;;;5.23;3.60;;;22.90;86.90;;;;;;5025470;28;20431;-68
2023/07/06 09:43:29;;;;;;;4.63;4.13;;;23.10;87.00;;;;;;5025293;28;20439;-68
2023/07/06 09:45:59;;;;;;;3.83;2.83;;;23.10;84.00;;;;;;5025461;28;20521;-68
2023/07/06 09:48:36;;;;;;;9.97;3.63;;;23.00;83.00;;;;;;5021738;28;20458;-67
2023/07/06 09:51:13;;;;;;;4.77;3.23;;;23.10;82.20;;;;;;5024282;28;20526;-68
2023/07/06 09:53:48;;;;;;;3.73;3.30;;;23.00;81.00;;;;;;5040620;28;20484;-67
2023/07/06 09:56:14;;;;;;;4.33;3.00;;;23.10;81.70;;;;;;5025484;28;20477;-67
2023/07/06 09:58:41;;;;;;;3.73;3.30;;;23.20;80.90;;;;;;5023698;28;20476;-68
2023/07/06 10:01:25;;;;;;;8.80;3.67;;;23.30;81.00;;;;;;5022405;28;20525;-67
2023/07/06 10:04:16;;;;;;;7.97;3.70;;;23.40;83.00;;;;;;5020173;28;20465;-68
2023/07/06 10:07:05;;;;;;;6.60;3.60;;;23.50;82.80;;;;;;5023677;28;20484;-68
2023/07/06 10:09:50;;;;;;;5.20;3.30;;;23.50;80.50;;;;;;5024277;28;20859;-68
2023/07/06 10:12:34;;;;;;;8.50;3.87;;;23.60;80.20;;;;;;5023875;28;20454;-68
2023/07/06 10:15:08;;;;;;;3.93;3.33;;;23.70;79.60;;;;;;5020228;28;20443;-69
2023/07/06 10:17:37;;;;;;;4.53;3.37;;;23.70;80.70;;;;;;5026212;28;20761;-68
2023/07/06 10:20:36;;;;;;;5.27;3.87;;;23.70;81.30;;;;;;5023373;28;20459;-68
2023/07/06 10:23:05;;;;;;;4.43;3.63;;;23.80;79.70;;;;;;5024525;28;20553;-68
2023/07/06 10:25:37;;;;;;;6.47;3.67;;;23.80;79.80;;;;;;5023917;28;20463;-68
2023/07/06 10:28:07;;;;;;;4.80;3.30;;;23.80;77.70;;;;;;5020089;28;20802;-67
2023/07/06 10:30:40;;;;;;;4.53;3.83;;;23.90;77.40;;;;;;5022347;28;20837;-67
2023/07/06 10:33:13;;;;;;;4.83;3.90;;;23.80;74.40;;;;;;5025524;28;20541;-67
2023/07/06 10:35:45;;;;;;;6.40;3.40;;;24.00;73.60;;;;;;5022315;28;20439;-67
2023/07/06 10:38:11;;;;;;;4.83;3.80;;;24.10;74.80;;;;;;5024518;28;20538;-67
2023/07/06 10:40:37;;;;;;;6.53;3.73;;;24.00;75.90;;;;;;5025053;28;20430;-67
2023/07/06 10:43:13;;;;;;;4.07;3.67;;;24.10;76.00;;;;;;5023690;28;20435;-67
2023/07/06 10:45:49;;;;;;;6.27;3.80;;;24.20;69.50;;;;;;5021176;28;20963;-68
2023/07/06 10:48:18;;;;;;;5.10;3.97;;;24.20;65.30;;;;;;5021803;28;20852;-67
2023/07/06 10:50:51;;;;;;;5.87;3.80;;;24.20;63.90;;;;;;5023558;28;20419;-67
2023/07/06 10:53:25;;;;;;;3.90;3.50;;;24.20;63.00;;;;;;5025298;28;21030;-68
2023/07/06 10:56:03;;;;;;;3.90;3.20;;;24.20;61.60;;;;;;5026494;28;20436;-68
2023/07/06 10:58:33;;;;;;;6.13;4.10;;;24.10;64.60;;;;;;5024206;28;20603;-68
2023/07/06 11:01:09;;;;;;;4.93;3.67;;;24.20;65.00;;;;;;5024854;28;20811;-68
2023/07/06 11:03:37;;;;;;;6.07;3.60;;;24.40;65.70;;;;;;5022149;28;20537;-67
2023/07/06 11:06:11;;;;;;;5.97;3.63;;;24.40;65.90;;;;;;5020636;28;20840;-68
2023/07/06 11:08:58;;;;;;;4.50;3.90;;;24.40;66.00;;;;;;5021972;28;20446;-67
2023/07/06 11:11:27;;;;;;;7.43;3.60;;;24.50;66.40;;;;;;5021846;28;20431;-68
2023/07/06 11:13:53;;;;;;;5.03;3.70;;;24.70;65.90;;;;;;5022662;28;20442;-67
2023/07/06 11:16:47;;;;;;;4.20;3.40;;;24.70;64.00;;;;;;5023909;28;20443;-68
2023/07/06 11:19:19;;;;;;;4.40;3.50;;;24.90;63.20;;;;;;5021954;28;20633;-68
2023/07/06 11:21:50;;;;;;;3.93;3.47;;;25.00;63.60;;;;;;5024343;28;20905;-68
2023/07/06 11:24:21;;;;;;;4.03;3.63;;;25.00;61.00;;;;;;5024125;28;20461;-68
2023/07/06 11:26:59;;;;;;;4.30;3.90;;;25.20;61.60;;;;;;5017948;28;20473;-68
2023/07/06 11:29:30;;;;;;;7.47;4.17;;;25.20;59.50;;;;;;5021411;28;20890;-68
2023/07/06 11:32:19;;;;;;;7.40;4.70;;;25.20;59.30;;;;;;5024449;28;21150;-68
2023/07/06 11:35:09;;;;;;;5.53;3.97;;;25.40;59.50;;;;;;5021706;28;20498;-67
2023/07/06 11:37:40;;;;;;;4.10;3.70;;;25.50;58.50;;;;;;5022327;28;20427;-67
2023/07/06 11:40:38;;;;;;;3.63;3.30;;;25.50;59.30;;;;;;5020834;28;20646;-67
2023/07/06 11:43:08;;;;;;;4.83;4.10;;;25.60;58.60;;;;;;4994132;28;20525;-67
2023/07/06 11:45:58;;;;;;;5.37;3.53;;;25.30;58.80;;;;;;5017055;28;20496;-67
2023/07/06 11:48:38;;;;;;;3.50;3.00;;;25.50;58.50;;;;;;5019520;28;20443;-67
2023/07/06 11:51:05;;;;;;;5.00;3.80;;;25.80;59.70;;;;;;5017705;28;20454;-67
2023/07/06 11:53:54;;;;;;;4.13;3.17;;;26.00;57.10;;;;;;5017434;28;20439;-67
2023/07/06 11:56:33;;;;;;;5.47;3.43;;;25.90;54.20;;;;;;5018015;28;20604;-67
2023/07/06 11:59:04;;;;;;;5.03;3.70;;;26.10;54.90;;;;;;5017447;28;20912;-67
2023/07/06 12:01:40;;;;;;;4.47;4.07;;;26.40;54.20;;;;;;5018738;28;20438;-67
2023/07/06 12:04:29;;;;;;;10.33;3.57;;;26.50;53.50;;;;;;5018201;28;20439;-67
2023/07/06 12:06:57;;;;;;;5.07;3.63;;;26.90;53.00;;;;;;5014336;28;20821;-67
2023/07/06 12:09:26;;;;;;;6.73;3.67;;;27.60;53.30;;;;;;5022192;28;20455;-67
2023/07/06 12:11:58;;;;;;;6.30;3.60;;;28.50;51.90;;;;;;5017326;28;20454;-67
2023/07/06 12:14:24;;;;;;;6.30;3.93;;;30.00;51.70;;;;;;5022075;28;20446;-67
2023/07/06 12:16:51;;;;;;;4.50;3.53;;;31.40;49.40;;;;;;5021312;28;20422;-68
2023/07/06 12:19:17;;;;;;;4.60;3.33;;;32.00;47.90;;;;;;5022650;28;20447;-68
2023/07/06 12:21:55;;;;;;;4.63;4.00;;;32.60;47.20;;;;;;5021012;28;20430;-68
2023/07/06 12:24:23;;;;;;;5.80;4.00;;;32.90;45.90;;;;;;5022178;28;20835;-68
2023/07/06 12:26:57;;;;;;;3.83;3.50;;;32.90;43.60;;;;;;5022763;28;20467;-66
2023/07/06 12:29:27;;;;;;;3.87;3.47;;;32.60;42.80;;;;;;5018713;28;20433;-68
2023/07/06 12:31:54;;;;;;;5.00;4.60;;;32.90;43.80;;;;;;5025363;28;20469;-68
2023/07/06 12:34:26;;;;;;;4.53;3.77;;;32.80;42.90;;;;;;5018638;28;20443;-69
2023/07/06 12:36:55;;;;;;;4.80;3.40;;;32.20;41.70;;;;;;5024241;28;20435;-68
2023/07/06 12:39:21;;;;;;;4.00;3.60;;;32.30;41.40;;;;;;5024541;28;20431;-68
2023/07/06 12:41:50;;;;;;;3.80;3.50;;;32.10;41.00;;;;;;5026531;28;21011;-68
2023/07/06 12:44:18;;;;;;;4.80;3.60;;;31.80;41.80;;;;;;5024639;28;20439;-68
2023/07/06 12:46:54;;;;;;;4.30;3.90;;;31.60;41.90;;;;;;5026946;28;20462;-68
2023/07/06 12:49:22;;;;;;;4.00;3.50;;;31.80;42.50;;;;;;5023199;28;20434;-68
2023/07/06 12:51:54;;;;;;;4.23;3.87;;;31.20;41.60;;;;;;5024608;28;20603;-68
2023/07/06 12:54:24;;;;;;;4.53;3.53;;;31.10;42.20;;;;;;5033720;28;20409;-69
2023/07/06 12:56:59;;;;;;;5.10;3.70;;;30.90;42.10;;;;;;5026045;28;20423;-68
2023/07/06 12:59:30;;;;;;;4.57;3.67;;;30.90;41.40;;;;;;5032486;28;20465;-69